Terminal Aerodrome Forecast
Issued by NWS

Home | Current Version | Previous Version | Text Only | Print | Product List | Glossary On
Versions: 1 2 3 4 5 6 7 8 9 10 11 12 13 14 15 16 17 18
000
FTUS45 KRIW 251122
TAFCPR
TAF
KCPR 251122Z 2512/2612 24007KT P6SM FEW100
     FM251600 26014G22KT P6SM VCTS SCT050CB BKN080
     FM252000 26018G30KT 6SM -SHRA VCTS FEW040 SCT060CB BKN090
     FM260200 26008KT P6SM VCSH FEW060 BKN100
     FM260400 08006KT P6SM SCT100=

USA.gov is the U.S. government's official web portal to all federal, state and local government web resources and services.